sensor_id;sensor_type;location;lat;lon;timestamp;temperature;humidity
21149;DHT22;10732;51.472;6.466;2023-04-06T00:01:39;1.60;99.90
21149;DHT22;10732;51.472;6.466;2023-04-06T00:04:05;1.50;99.90
21149;DHT22;10732;51.472;6.466;2023-04-06T00:06:30;1.50;99.90
21149;DHT22;10732;51.472;6.466;2023-04-06T00:08:57;1.50;99.90
21149;DHT22;10732;51.472;6.466;2023-04-06T00:11:23;1.50;99.90
21149;DHT22;10732;51.472;6.466;2023-04-06T00:13:48;1.40;99.90
21149;DHT22;10732;51.472;6.466;2023-04-06T00:16:14;1.40;99.90
21149;DHT22;10732;51.472;6.466;2023-04-06T00:18:40;1.40;99.90
21149;DHT22;10732;51.472;6.466;2023-04-06T00:21:06;1.30;99.90
21149;DHT22;10732;51.472;6.466;2023-04-06T00:23:32;1.30;99.90
21149;DHT22;10732;51.472;6.466;2023-04-06T00:25:57;1.30;99.90
21149;DHT22;10732;51.472;6.466;2023-04-06T00:28:23;1.20;99.90
21149;DHT22;10732;51.472;6.466;2023-04-06T00:30:52;1.20;99.90
21149;DHT22;10732;51.472;6.466;2023-04-06T00:33:19;1.20;99.90
21149;DHT22;10732;51.472;6.466;2023-04-06T00:35:44;1.20;99.90
21149;DHT22;10732;51.472;6.466;2023-04-06T00:38:11;1.20;99.90
21149;DHT22;10732;51.472;6.466;2023-04-06T00:40:37;1.20;99.90
21149;DHT22;10732;51.472;6.466;2023-04-06T00:43:02;1.20;99.90
21149;DHT22;10732;51.472;6.466;2023-04-06T00:45:28;1.10;99.90
21149;DHT22;10732;51.472;6.466;2023-04-06T00:47:54;1.20;99.90
21149;DHT22;10732;51.472;6.466;2023-04-06T00:50:19;1.10;99.90
21149;DHT22;10732;51.472;6.466;2023-04-06T00:52:45;1.00;99.90
21149;DHT22;10732;51.472;6.466;2023-04-06T00:55:11;1.00;99.90
21149;DHT22;10732;51.472;6.466;2023-04-06T00:57:37;1.00;99.90
21149;DHT22;10732;51.472;6.466;2023-04-06T01:00:04;1.00;99.90
21149;DHT22;10732;51.472;6.466;2023-04-06T01:02:29;0.90;99.90
21149;DHT22;10732;51.472;6.466;2023-04-06T01:04:55;0.90;99.90
21149;DHT22;10732;51.472;6.466;2023-04-06T01:07:21;0.90;99.90
21149;DHT22;10732;51.472;6.466;2023-04-06T01:09:47;0.80;99.90
21149;DHT22;10732;51.472;6.466;2023-04-06T01:12:12;0.80;99.90
21149;DHT22;10732;51.472;6.466;2023-04-06T01:14:38;0.80;99.90
21149;DHT22;10732;51.472;6.466;2023-04-06T01:17:03;0.70;99.90
21149;DHT22;10732;51.472;6.466;2023-04-06T01:19:29;0.70;99.90
21149;DHT22;10732;51.472;6.466;2023-04-06T01:21:55;0.70;99.90
21149;DHT22;10732;51.472;6.466;2023-04-06T01:24:21;0.70;99.90
21149;DHT22;10732;51.472;6.466;2023-04-06T01:26:47;0.60;99.90
21149;DHT22;10732;51.472;6.466;2023-04-06T01:29:12;0.70;99.90
21149;DHT22;10732;51.472;6.466;2023-04-06T01:31:39;0.60;99.90
21149;DHT22;10732;51.472;6.466;2023-04-06T01:34:05;0.50;99.90
21149;DHT22;10732;51.472;6.466;2023-04-06T01:36:33;0.50;99.90
21149;DHT22;10732;51.472;6.466;2023-04-06T01:38:59;0.50;99.90
21149;DHT22;10732;51.472;6.466;2023-04-06T01:41:25;0.50;99.90
21149;DHT22;10732;51.472;6.466;2023-04-06T01:43:50;0.50;99.90
21149;DHT22;10732;51.472;6.466;2023-04-06T01:46:20;0.50;99.90
21149;DHT22;10732;51.472;6.466;2023-04-06T01:48:45;0.50;99.90
21149;DHT22;10732;51.472;6.466;2023-04-06T01:51:11;0.50;99.90
21149;DHT22;10732;51.472;6.466;2023-04-06T01:53:36;0.50;99.90
21149;DHT22;10732;51.472;6.466;2023-04-06T01:56:02;0.40;99.90
21149;DHT22;10732;51.472;6.466;2023-04-06T01:58:28;0.40;99.90
21149;DHT22;10732;51.472;6.466;2023-04-06T02:00:53;0.40;99.90
21149;DHT22;10732;51.472;6.466;2023-04-06T02:03:19;0.40;99.90
21149;DHT22;10732;51.472;6.466;2023-04-06T02:05:45;0.30;99.90
21149;DHT22;10732;51.472;6.466;2023-04-06T02:08:11;0.30;99.90
21149;DHT22;10732;51.472;6.466;2023-04-06T02:10:36;0.30;99.90
21149;DHT22;10732;51.472;6.466;2023-04-06T02:13:02;0.30;99.90
21149;DHT22;10732;51.472;6.466;2023-04-06T02:15:27;0.20;99.90
21149;DHT22;10732;51.472;6.466;2023-04-06T02:17:53;0.20;99.90
21149;DHT22;10732;51.472;6.466;2023-04-06T02:20:19;0.20;99.90
21149;DHT22;10732;51.472;6.466;2023-04-06T02:22:45;0.20;99.90
21149;DHT22;10732;51.472;6.466;2023-04-06T02:25:10;0.20;99.90
21149;DHT22;10732;51.472;6.466;2023-04-06T02:27:36;0.10;99.90
21149;DHT22;10732;51.472;6.466;2023-04-06T02:30:03;0.10;99.90
21149;DHT22;10732;51.472;6.466;2023-04-06T02:32:28;0.00;99.90
21149;DHT22;10732;51.472;6.466;2023-04-06T02:34:54;0.00;99.90
21149;DHT22;10732;51.472;6.466;2023-04-06T02:37:20;0.00;99.90
21149;DHT22;10732;51.472;6.466;2023-04-06T02:39:46;0.00;99.90
21149;DHT22;10732;51.472;6.466;2023-04-06T02:42:11;-0.10;99.90
21149;DHT22;10732;51.472;6.466;2023-04-06T02:44:37;-0.10;99.90
21149;DHT22;10732;51.472;6.466;2023-04-06T02:47:03;-0.10;99.90
21149;DHT22;10732;51.472;6.466;2023-04-06T02:49:28;-0.10;99.90
21149;DHT22;10732;51.472;6.466;2023-04-06T02:51:54;-0.10;99.90
21149;DHT22;10732;51.472;6.466;2023-04-06T02:54:19;-0.10;99.90
21149;DHT22;10732;51.472;6.466;2023-04-06T02:56:45;-0.20;99.90
21149;DHT22;10732;51.472;6.466;2023-04-06T02:59:11;-0.20;99.90
21149;DHT22;10732;51.472;6.466;2023-04-06T03:01:36;-0.20;99.90
21149;DHT22;10732;51.472;6.466;2023-04-06T03:04:02;-0.20;99.90
21149;DHT22;10732;51.472;6.466;2023-04-06T03:06:28;-0.20;99.90
21149;DHT22;10732;51.472;6.466;2023-04-06T03:08:53;-0.20;99.90
21149;DHT22;10732;51.472;6.466;2023-04-06T03:11:19;-0.20;99.90
21149;DHT22;10732;51.472;6.466;2023-04-06T03:13:46;-0.20;99.90
21149;DHT22;10732;51.472;6.466;2023-04-06T03:16:11;-0.30;99.90
21149;DHT22;10732;51.472;6.466;2023-04-06T03:18:37;-0.30;99.90
21149;DHT22;10732;51.472;6.466;2023-04-06T03:21:03;-0.30;99.90
21149;DHT22;10732;51.472;6.466;2023-04-06T03:23:29;-0.30;99.90
21149;DHT22;10732;51.472;6.466;2023-04-06T03:25:54;-0.30;99.90
21149;DHT22;10732;51.472;6.466;2023-04-06T03:28:20;-0.40;99.90
21149;DHT22;10732;51.472;6.466;2023-04-06T03:30:45;-0.50;99.90
21149;DHT22;10732;51.472;6.466;2023-04-06T03:33:11;-0.40;99.90
21149;DHT22;10732;51.472;6.466;2023-04-06T03:35:37;-0.50;99.90
21149;DHT22;10732;51.472;6.466;2023-04-06T03:38:03;-0.50;99.90
21149;DHT22;10732;51.472;6.466;2023-04-06T03:40:30;-0.50;99.90
21149;DHT22;10732;51.472;6.466;2023-04-06T03:42:56;-0.50;99.90
21149;DHT22;10732;51.472;6.466;2023-04-06T03:45:21;-0.50;99.90
21149;DHT22;10732;51.472;6.466;2023-04-06T03:47:47;-0.50;99.90
21149;DHT22;10732;51.472;6.466;2023-04-06T03:50:12;-0.50;99.90
21149;DHT22;10732;51.472;6.466;2023-04-06T03:52:38;-0.50;99.90
21149;DHT22;10732;51.472;6.466;2023-04-06T03:55:04;-0.60;99.90
21149;DHT22;10732;51.472;6.466;2023-04-06T03:57:30;-0.60;99.90
21149;DHT22;10732;51.472;6.466;2023-04-06T03:59:56;-0.60;99.90
21149;DHT22;10732;51.472;6.466;2023-04-06T04:02:21;-0.60;99.90
21149;DHT22;10732;51.472;6.466;2023-04-06T04:04:47;-0.60;99.90
21149;DHT22;10732;51.472;6.466;2023-04-06T04:07:12;-0.60;99.90
21149;DHT22;10732;51.472;6.466;2023-04-06T04:09:38;-0.60;99.90
21149;DHT22;10732;51.472;6.466;2023-04-06T04:12:04;-0.60;99.90
21149;DHT22;10732;51.472;6.466;2023-04-06T04:14:29;-0.60;99.90
21149;DHT22;10732;51.472;6.466;2023-04-06T04:16:55;-0.70;99.90
21149;DHT22;10732;51.472;6.466;2023-04-06T04:19:21;-0.70;99.90
21149;DHT22;10732;51.472;6.466;2023-04-06T04:21:46;-0.60;99.90
21149;DHT22;10732;51.472;6.466;2023-04-06T04:24:13;-0.70;99.90
21149;DHT22;10732;51.472;6.466;2023-04-06T04:26:39;-0.70;99.90
21149;DHT22;10732;51.472;6.466;2023-04-06T04:29:05;-0.60;99.90
21149;DHT22;10732;51.472;6.466;2023-04-06T04:31:30;-0.60;99.90
21149;DHT22;10732;51.472;6.466;2023-04-06T04:33:57;-0.50;99.90
21149;DHT22;10732;51.472;6.466;2023-04-06T04:36:23;-0.50;99.90
21149;DHT22;10732;51.472;6.466;2023-04-06T04:38:49;-0.50;99.90
21149;DHT22;10732;51.472;6.466;2023-04-06T04:41:15;-0.60;99.90
21149;DHT22;10732;51.472;6.466;2023-04-06T04:43:41;-0.60;99.90
21149;DHT22;10732;51.472;6.466;2023-04-06T04:46:06;-0.60;99.90
21149;DHT22;10732;51.472;6.466;2023-04-06T04:48:32;-0.60;99.90
21149;DHT22;10732;51.472;6.466;2023-04-06T04:50:58;-0.50;99.90
21149;DHT22;10732;51.472;6.466;2023-04-06T04:53:23;-0.60;99.90
21149;DHT22;10732;51.472;6.466;2023-04-06T04:55:49;-0.50;99.90
21149;DHT22;10732;51.472;6.466;2023-04-06T04:58:14;-0.50;99.90
21149;DHT22;10732;51.472;6.466;2023-04-06T05:00:42;-0.40;99.90
21149;DHT22;10732;51.472;6.466;2023-04-06T05:03:08;-0.30;99.90
21149;DHT22;10732;51.472;6.466;2023-04-06T05:05:34;-0.30;99.90
21149;DHT22;10732;51.472;6.466;2023-04-06T05:08:01;-0.10;99.90
21149;DHT22;10732;51.472;6.466;2023-04-06T05:10:26;0.00;99.90
21149;DHT22;10732;51.472;6.466;2023-04-06T05:12:53;0.20;99.90
21149;DHT22;10732;51.472;6.466;2023-04-06T05:15:18;0.50;99.90
21149;DHT22;10732;51.472;6.466;2023-04-06T05:17:44;0.80;99.90
21149;DHT22;10732;51.472;6.466;2023-04-06T05:20:10;1.10;99.90
21149;DHT22;10732;51.472;6.466;2023-04-06T05:22:36;1.30;99.90
21149;DHT22;10732;51.472;6.466;2023-04-06T05:25:02;1.60;99.90
21149;DHT22;10732;51.472;6.466;2023-04-06T05:27:28;2.00;99.90
21149;DHT22;10732;51.472;6.466;2023-04-06T05:29:54;2.20;99.90
21149;DHT22;10732;51.472;6.466;2023-04-06T05:32:20;2.70;99.90
21149;DHT22;10732;51.472;6.466;2023-04-06T05:34:48;3.50;99.90
21149;DHT22;10732;51.472;6.466;2023-04-06T05:37:14;3.40;99.90
21149;DHT22;10732;51.472;6.466;2023-04-06T05:39:40;3.40;99.90
21149;DHT22;10732;51.472;6.466;2023-04-06T05:42:06;3.60;99.90
21149;DHT22;10732;51.472;6.466;2023-04-06T05:44:32;4.20;99.90
21149;DHT22;10732;51.472;6.466;2023-04-06T05:46:57;4.40;99.90
21149;DHT22;10732;51.472;6.466;2023-04-06T05:49:23;4.50;99.90
21149;DHT22;10732;51.472;6.466;2023-04-06T05:51:48;4.90;99.90
21149;DHT22;10732;51.472;6.466;2023-04-06T05:54:14;4.80;99.90
21149;DHT22;10732;51.472;6.466;2023-04-06T05:56:39;5.10;99.90
21149;DHT22;10732;51.472;6.466;2023-04-06T05:59:05;5.30;99.90
21149;DHT22;10732;51.472;6.466;2023-04-06T06:01:32;5.70;99.90
21149;DHT22;10732;51.472;6.466;2023-04-06T06:03:57;5.50;99.90
21149;DHT22;10732;51.472;6.466;2023-04-06T06:06:23;5.30;99.90
21149;DHT22;10732;51.472;6.466;2023-04-06T06:08:48;5.40;99.90
21149;DHT22;10732;51.472;6.466;2023-04-06T06:11:14;6.00;99.90
21149;DHT22;10732;51.472;6.466;2023-04-06T06:13:40;6.20;99.90
21149;DHT22;10732;51.472;6.466;2023-04-06T06:16:06;5.90;99.90
21149;DHT22;10732;51.472;6.466;2023-04-06T06:18:31;5.70;99.90
21149;DHT22;10732;51.472;6.466;2023-04-06T06:20:57;5.60;99.90
21149;DHT22;10732;51.472;6.466;2023-04-06T06:23:23;5.30;99.90
21149;DHT22;10732;51.472;6.466;2023-04-06T06:25:48;5.40;99.90
21149;DHT22;10732;51.472;6.466;2023-04-06T06:28:14;5.70;99.90
21149;DHT22;10732;51.472;6.466;2023-04-06T06:30:40;5.70;99.90
21149;DHT22;10732;51.472;6.466;2023-04-06T06:33:05;6.20;99.90
21149;DHT22;10732;51.472;6.466;2023-04-06T06:35:31;6.90;99.90
21149;DHT22;10732;51.472;6.466;2023-04-06T06:37:56;7.50;99.90
21149;DHT22;10732;51.472;6.466;2023-04-06T06:40:22;8.50;99.90
21149;DHT22;10732;51.472;6.466;2023-04-06T06:42:49;9.10;99.90
21149;DHT22;10732;51.472;6.466;2023-04-06T06:45:15;9.70;99.90
21149;DHT22;10732;51.472;6.466;2023-04-06T06:47:41;9.50;99.90
21149;DHT22;10732;51.472;6.466;2023-04-06T06:50:07;9.70;99.90
21149;DHT22;10732;51.472;6.466;2023-04-06T06:52:32;9.70;99.90
21149;DHT22;10732;51.472;6.466;2023-04-06T06:54:58;9.80;99.90
21149;DHT22;10732;51.472;6.466;2023-04-06T06:57:24;10.20;99.90
21149;DHT22;10732;51.472;6.466;2023-04-06T06:59:50;10.40;99.90
21149;DHT22;10732;51.472;6.466;2023-04-06T07:02:15;10.20;99.90
21149;DHT22;10732;51.472;6.466;2023-04-06T07:04:41;9.80;99.90
21149;DHT22;10732;51.472;6.466;2023-04-06T07:07:07;9.30;99.90
21149;DHT22;10732;51.472;6.466;2023-04-06T07:09:35;10.20;99.90
21149;DHT22;10732;51.472;6.466;2023-04-06T07:12:00;10.10;99.90
21149;DHT22;10732;51.472;6.466;2023-04-06T07:14:27;10.50;99.90
21149;DHT22;10732;51.472;6.466;2023-04-06T07:16:52;10.60;99.90
21149;DHT22;10732;51.472;6.466;2023-04-06T07:19:18;11.00;99.90
21149;DHT22;10732;51.472;6.466;2023-04-06T07:21:44;11.60;99.90
21149;DHT22;10732;51.472;6.466;2023-04-06T07:24:09;13.30;99.90
21149;DHT22;10732;51.472;6.466;2023-04-06T07:26:35;12.80;99.90
21149;DHT22;10732;51.472;6.466;2023-04-06T07:29:00;13.70;99.90
21149;DHT22;10732;51.472;6.466;2023-04-06T07:31:26;14.10;99.90
21149;DHT22;10732;51.472;6.466;2023-04-06T07:33:51;13.00;99.90
21149;DHT22;10732;51.472;6.466;2023-04-06T07:36:17;12.70;99.90
21149;DHT22;10732;51.472;6.466;2023-04-06T07:38:43;12.40;99.90
21149;DHT22;10732;51.472;6.466;2023-04-06T07:41:11;11.40;99.90
21149;DHT22;10732;51.472;6.466;2023-04-06T07:43:36;11.00;99.90
21149;DHT22;10732;51.472;6.466;2023-04-06T07:46:03;10.70;99.90
21149;DHT22;10732;51.472;6.466;2023-04-06T07:48:29;10.40;99.90
21149;DHT22;10732;51.472;6.466;2023-04-06T07:51:04;10.30;99.90
21149;DHT22;10732;51.472;6.466;2023-04-06T07:53:30;10.80;99.90
21149;DHT22;10732;51.472;6.466;2023-04-06T07:55:57;11.10;99.90
21149;DHT22;10732;51.472;6.466;2023-04-06T07:58:22;11.80;99.90
21149;DHT22;10732;51.472;6.466;2023-04-06T08:00:48;12.60;99.90
21149;DHT22;10732;51.472;6.466;2023-04-06T08:03:13;12.70;99.90
21149;DHT22;10732;51.472;6.466;2023-04-06T08:05:39;11.80;99.90
21149;DHT22;10732;51.472;6.466;2023-04-06T08:08:05;11.80;99.90
21149;DHT22;10732;51.472;6.466;2023-04-06T08:10:31;12.80;99.90
21149;DHT22;10732;51.472;6.466;2023-04-06T08:12:56;13.50;99.90
21149;DHT22;10732;51.472;6.466;2023-04-06T08:15:22;13.30;99.90
21149;DHT22;10732;51.472;6.466;2023-04-06T08:17:47;12.50;99.90
21149;DHT22;10732;51.472;6.466;2023-04-06T08:20:13;12.10;99.90
21149;DHT22;10732;51.472;6.466;2023-04-06T08:22:39;12.10;99.90
21149;DHT22;10732;51.472;6.466;2023-04-06T08:25:05;12.70;99.90
21149;DHT22;10732;51.472;6.466;2023-04-06T08:27:31;13.30;99.90
21149;DHT22;10732;51.472;6.466;2023-04-06T08:29:56;14.10;99.90
21149;DHT22;10732;51.472;6.466;2023-04-06T08:32:22;12.80;99.90
21149;DHT22;10732;51.472;6.466;2023-04-06T08:34:48;12.40;99.90
21149;DHT22;10732;51.472;6.466;2023-04-06T08:37:13;13.30;99.90
21149;DHT22;10732;51.472;6.466;2023-04-06T08:39:39;13.70;99.90
21149;DHT22;10732;51.472;6.466;2023-04-06T08:42:12;11.90;99.90
21149;DHT22;10732;51.472;6.466;2023-04-06T08:44:40;11.80;99.90
21149;DHT22;10732;51.472;6.466;2023-04-06T08:47:06;11.60;99.90
21149;DHT22;10732;51.472;6.466;2023-04-06T08:49:32;11.50;99.90
21149;DHT22;10732;51.472;6.466;2023-04-06T08:51:59;12.00;99.90
21149;DHT22;10732;51.472;6.466;2023-04-06T08:54:25;12.40;99.90
21149;DHT22;10732;51.472;6.466;2023-04-06T08:56:52;12.30;99.90
21149;DHT22;10732;51.472;6.466;2023-04-06T08:59:18;11.90;99.90
21149;DHT22;10732;51.472;6.466;2023-04-06T09:01:44;11.10;99.90
21149;DHT22;10732;51.472;6.466;2023-04-06T09:04:11;10.60;99.90
21149;DHT22;10732;51.472;6.466;2023-04-06T09:06:37;10.70;99.90
21149;DHT22;10732;51.472;6.466;2023-04-06T09:09:03;10.60;99.90
21149;DHT22;10732;51.472;6.466;2023-04-06T09:11:29;11.00;99.90
21149;DHT22;10732;51.472;6.466;2023-04-06T09:13:55;11.90;99.90
21149;DHT22;10732;51.472;6.466;2023-04-06T09:16:21;12.50;99.90
21149;DHT22;10732;51.472;6.466;2023-04-06T09:18:48;11.80;99.90
21149;DHT22;10732;51.472;6.466;2023-04-06T09:21:17;12.00;99.90
21149;DHT22;10732;51.472;6.466;2023-04-06T09:23:43;11.90;99.90
21149;DHT22;10732;51.472;6.466;2023-04-06T09:26:11;11.80;99.90
21149;DHT22;10732;51.472;6.466;2023-04-06T09:31:13;11.30;99.90
21149;DHT22;10732;51.472;6.466;2023-04-06T09:33:44;12.20;99.90
21149;DHT22;10732;51.472;6.466;2023-04-06T09:36:10;12.80;99.90
21149;DHT22;10732;51.472;6.466;2023-04-06T09:39:12;13.70;99.90
21149;DHT22;10732;51.472;6.466;2023-04-06T09:41:37;13.40;99.90
21149;DHT22;10732;51.472;6.466;2023-04-06T09:44:04;13.10;99.90
21149;DHT22;10732;51.472;6.466;2023-04-06T09:46:33;12.80;99.90
21149;DHT22;10732;51.472;6.466;2023-04-06T09:49:01;13.40;99.90
21149;DHT22;10732;51.472;6.466;2023-04-06T09:54:01;12.90;99.90
21149;DHT22;10732;51.472;6.466;2023-04-06T09:56:33;12.60;99.90
21149;DHT22;10732;51.472;6.466;2023-04-06T09:59:05;12.70;99.90
21149;DHT22;10732;51.472;6.466;2023-04-06T10:01:35;12.80;99.90
21149;DHT22;10732;51.472;6.466;2023-04-06T10:04:26;13.50;99.90
21149;DHT22;10732;51.472;6.466;2023-04-06T10:06:57;13.50;99.90
21149;DHT22;10732;51.472;6.466;2023-04-06T10:09:25;13.30;99.90
21149;DHT22;10732;51.472;6.466;2023-04-06T10:11:53;13.50;99.90
21149;DHT22;10732;51.472;6.466;2023-04-06T10:14:20;13.60;99.90
21149;DHT22;10732;51.472;6.466;2023-04-06T10:16:47;12.50;99.90
21149;DHT22;10732;51.472;6.466;2023-04-06T10:19:17;13.70;99.90
21149;DHT22;10732;51.472;6.466;2023-04-06T10:21:45;14.70;99.90
21149;DHT22;10732;51.472;6.466;2023-04-06T10:24:12;15.30;99.90
21149;DHT22;10732;51.472;6.466;2023-04-06T10:26:39;14.70;99.90
21149;DHT22;10732;51.472;6.466;2023-04-06T10:29:05;14.30;99.90
21149;DHT22;10732;51.472;6.466;2023-04-06T10:31:31;13.90;99.90
21149;DHT22;10732;51.472;6.466;2023-04-06T10:34:01;13.70;99.90
21149;DHT22;10732;51.472;6.466;2023-04-06T10:36:28;13.30;99.90
21149;DHT22;10732;51.472;6.466;2023-04-06T10:38:59;13.50;99.90
21149;DHT22;10732;51.472;6.466;2023-04-06T10:41:36;13.40;99.90
21149;DHT22;10732;51.472;6.466;2023-04-06T10:44:02;13.50;99.90
21149;DHT22;10732;51.472;6.466;2023-04-06T10:46:33;13.10;99.90
21149;DHT22;10732;51.472;6.466;2023-04-06T10:49:10;13.10;99.90
21149;DHT22;10732;51.472;6.466;2023-04-06T10:51:38;13.10;99.90
21149;DHT22;10732;51.472;6.466;2023-04-06T10:54:05;13.00;99.90
21149;DHT22;10732;51.472;6.466;2023-04-06T10:56:33;12.90;99.90
21149;DHT22;10732;51.472;6.466;2023-04-06T10:59:02;12.80;99.90
21149;DHT22;10732;51.472;6.466;2023-04-06T11:01:27;12.70;99.90
21149;DHT22;10732;51.472;6.466;2023-04-06T11:03:57;12.50;99.90
21149;DHT22;10732;51.472;6.466;2023-04-06T11:06:27;12.80;99.90
21149;DHT22;10732;51.472;6.466;2023-04-06T11:08:55;13.10;99.90
21149;DHT22;10732;51.472;6.466;2023-04-06T11:11:22;13.30;99.90
21149;DHT22;10732;51.472;6.466;2023-04-06T11:13:55;13.20;99.90
21149;DHT22;10732;51.472;6.466;2023-04-06T11:16:23;12.90;99.90
21149;DHT22;10732;51.472;6.466;2023-04-06T11:18:55;12.90;99.90
21149;DHT22;10732;51.472;6.466;2023-04-06T11:21:38;13.60;99.90
21149;DHT22;10732;51.472;6.466;2023-04-06T11:24:18;13.60;99.90
21149;DHT22;10732;51.472;6.466;2023-04-06T11:26:55;13.60;99.90
21149;DHT22;10732;51.472;6.466;2023-04-06T11:29:23;13.70;99.90
21149;DHT22;10732;51.472;6.466;2023-04-06T11:32:08;12.90;99.90
21149;DHT22;10732;51.472;6.466;2023-04-06T11:34:36;13.00;99.90
21149;DHT22;10732;51.472;6.466;2023-04-06T11:37:06;13.30;99.90
21149;DHT22;10732;51.472;6.466;2023-04-06T11:39:38;13.30;99.90
21149;DHT22;10732;51.472;6.466;2023-04-06T11:42:04;13.50;99.90
21149;DHT22;10732;51.472;6.466;2023-04-06T11:44:39;13.90;99.90
21149;DHT22;10732;51.472;6.466;2023-04-06T11:47:08;13.70;99.90
21149;DHT22;10732;51.472;6.466;2023-04-06T11:49:37;13.60;99.90
21149;DHT22;10732;51.472;6.466;2023-04-06T11:54:46;13.90;99.90
21149;DHT22;10732;51.472;6.466;2023-04-06T11:57:12;13.80;99.90
21149;DHT22;10732;51.472;6.466;2023-04-06T11:59:38;14.10;99.90
21149;DHT22;10732;51.472;6.466;2023-04-06T12:02:04;13.90;99.90
21149;DHT22;10732;51.472;6.466;2023-04-06T12:04:30;13.80;99.90
21149;DHT22;10732;51.472;6.466;2023-04-06T12:06:57;14.10;99.90
21149;DHT22;10732;51.472;6.466;2023-04-06T12:09:22;14.00;99.90
21149;DHT22;10732;51.472;6.466;2023-04-06T12:11:48;14.20;99.90
21149;DHT22;10732;51.472;6.466;2023-04-06T12:14:14;14.10;99.90
21149;DHT22;10732;51.472;6.466;2023-04-06T12:16:40;13.60;99.90
21149;DHT22;10732;51.472;6.466;2023-04-06T12:19:06;13.40;99.90
21149;DHT22;10732;51.472;6.466;2023-04-06T12:21:32;13.30;99.90
21149;DHT22;10732;51.472;6.466;2023-04-06T12:23:58;13.30;99.90
21149;DHT22;10732;51.472;6.466;2023-04-06T12:26:24;13.00;99.90
21149;DHT22;10732;51.472;6.466;2023-04-06T12:28:50;12.80;99.90
21149;DHT22;10732;51.472;6.466;2023-04-06T12:31:16;13.20;99.90
21149;DHT22;10732;51.472;6.466;2023-04-06T12:33:42;13.40;99.90
21149;DHT22;10732;51.472;6.466;2023-04-06T12:36:14;12.90;99.90
21149;DHT22;10732;51.472;6.466;2023-04-06T12:38:41;12.40;99.90
21149;DHT22;10732;51.472;6.466;2023-04-06T12:41:07;12.60;99.90
21149;DHT22;10732;51.472;6.466;2023-04-06T12:43:33;12.70;99.90
21149;DHT22;10732;51.472;6.466;2023-04-06T12:45:58;12.50;99.90
21149;DHT22;10732;51.472;6.466;2023-04-06T12:48:25;12.50;99.90
21149;DHT22;10732;51.472;6.466;2023-04-06T12:51:01;12.60;99.90
21149;DHT22;10732;51.472;6.466;2023-04-06T12:53:27;12.30;99.90
21149;DHT22;10732;51.472;6.466;2023-04-06T12:55:54;11.90;99.90
21149;DHT22;10732;51.472;6.466;2023-04-06T12:58:21;11.80;99.90
21149;DHT22;10732;51.472;6.466;2023-04-06T13:00:47;11.80;99.90
21149;DHT22;10732;51.472;6.466;2023-04-06T13:03:13;11.30;99.90
21149;DHT22;10732;51.472;6.466;2023-04-06T13:05:49;11.10;99.90
21149;DHT22;10732;51.472;6.466;2023-04-06T13:08:17;11.40;99.90
21149;DHT22;10732;51.472;6.466;2023-04-06T13:10:44;11.30;99.90
21149;DHT22;10732;51.472;6.466;2023-04-06T13:13:09;10.90;99.90
21149;DHT22;10732;51.472;6.466;2023-04-06T13:15:36;10.70;99.90
21149;DHT22;10732;51.472;6.466;2023-04-06T13:18:02;10.50;99.90
21149;DHT22;10732;51.472;6.466;2023-04-06T13:20:28;10.50;99.90
21149;DHT22;10732;51.472;6.466;2023-04-06T13:22:53;10.60;99.90
21149;DHT22;10732;51.472;6.466;2023-04-06T13:25:19;10.80;99.90
21149;DHT22;10732;51.472;6.466;2023-04-06T13:27:45;11.00;99.90
21149;DHT22;10732;51.472;6.466;2023-04-06T13:30:13;10.80;99.90
21149;DHT22;10732;51.472;6.466;2023-04-06T13:32:39;10.70;99.90
21149;DHT22;10732;51.472;6.466;2023-04-06T13:35:05;10.70;99.90
21149;DHT22;10732;51.472;6.466;2023-04-06T13:37:31;10.60;99.90
21149;DHT22;10732;51.472;6.466;2023-04-06T13:39:57;10.80;99.90
21149;DHT22;10732;51.472;6.466;2023-04-06T13:42:23;10.70;99.90
21149;DHT22;10732;51.472;6.466;2023-04-06T13:44:48;10.50;99.90
21149;DHT22;10732;51.472;6.466;2023-04-06T13:47:16;10.40;99.90
21149;DHT22;10732;51.472;6.466;2023-04-06T13:49:42;10.40;99.90
21149;DHT22;10732;51.472;6.466;2023-04-06T13:52:07;10.50;99.90
21149;DHT22;10732;51.472;6.466;2023-04-06T13:54:35;10.20;99.90
21149;DHT22;10732;51.472;6.466;2023-04-06T13:57:00;10.10;99.90
21149;DHT22;10732;51.472;6.466;2023-04-06T13:59:32;10.10;99.90
21149;DHT22;10732;51.472;6.466;2023-04-06T14:01:58;9.80;99.90
21149;DHT22;10732;51.472;6.466;2023-04-06T14:04:23;9.90;99.90
21149;DHT22;10732;51.472;6.466;2023-04-06T14:06:49;10.00;99.90
21149;DHT22;10732;51.472;6.466;2023-04-06T14:09:14;9.90;99.90
21149;DHT22;10732;51.472;6.466;2023-04-06T14:11:40;10.10;99.90
21149;DHT22;10732;51.472;6.466;2023-04-06T14:14:06;10.20;99.90
21149;DHT22;10732;51.472;6.466;2023-04-06T14:16:32;9.80;99.90
21149;DHT22;10732;51.472;6.466;2023-04-06T14:18:57;9.70;99.90
21149;DHT22;10732;51.472;6.466;2023-04-06T14:21:24;9.50;99.90
21149;DHT22;10732;51.472;6.466;2023-04-06T14:23:49;9.20;99.90
21149;DHT22;10732;51.472;6.466;2023-04-06T14:26:16;9.10;99.90
21149;DHT22;10732;51.472;6.466;2023-04-06T14:28:42;9.10;99.90
21149;DHT22;10732;51.472;6.466;2023-04-06T14:31:13;9.10;99.90
21149;DHT22;10732;51.472;6.466;2023-04-06T14:33:40;9.20;99.90
21149;DHT22;10732;51.472;6.466;2023-04-06T14:36:07;9.30;99.90
21149;DHT22;10732;51.472;6.466;2023-04-06T14:38:32;9.30;99.90
21149;DHT22;10732;51.472;6.466;2023-04-06T14:40:58;9.30;99.90
21149;DHT22;10732;51.472;6.466;2023-04-06T14:43:24;9.30;99.90
21149;DHT22;10732;51.472;6.466;2023-04-06T14:45:51;9.30;99.90
21149;DHT22;10732;51.472;6.466;2023-04-06T14:48:16;9.30;99.90
21149;DHT22;10732;51.472;6.466;2023-04-06T14:50:52;9.40;99.90
21149;DHT22;10732;51.472;6.466;2023-04-06T14:53:18;9.40;99.90
21149;DHT22;10732;51.472;6.466;2023-04-06T14:55:44;9.20;99.90
21149;DHT22;10732;51.472;6.466;2023-04-06T14:58:10;9.30;99.90
21149;DHT22;10732;51.472;6.466;2023-04-06T15:00:37;9.40;99.90
21149;DHT22;10732;51.472;6.466;2023-04-06T15:03:03;9.10;99.90
21149;DHT22;10732;51.472;6.466;2023-04-06T15:05:29;9.10;99.90
21149;DHT22;10732;51.472;6.466;2023-04-06T15:07:55;9.00;99.90
21149;DHT22;10732;51.472;6.466;2023-04-06T15:10:21;9.00;99.90
21149;DHT22;10732;51.472;6.466;2023-04-06T15:12:46;8.90;99.90
21149;DHT22;10732;51.472;6.466;2023-04-06T15:15:12;8.90;99.90
21149;DHT22;10732;51.472;6.466;2023-04-06T15:17:37;9.10;99.90
21149;DHT22;10732;51.472;6.466;2023-04-06T15:20:04;9.20;99.90
21149;DHT22;10732;51.472;6.466;2023-04-06T15:22:30;9.20;99.90
21149;DHT22;10732;51.472;6.466;2023-04-06T15:24:56;9.00;99.90
21149;DHT22;10732;51.472;6.466;2023-04-06T15:27:22;8.80;99.90
21149;DHT22;10732;51.472;6.466;2023-04-06T15:29:47;9.00;99.90
21149;DHT22;10732;51.472;6.466;2023-04-06T15:32:12;9.10;99.90
21149;DHT22;10732;51.472;6.466;2023-04-06T15:34:38;9.10;99.90
21149;DHT22;10732;51.472;6.466;2023-04-06T15:37:04;9.00;99.90
21149;DHT22;10732;51.472;6.466;2023-04-06T15:39:30;9.00;99.90
21149;DHT22;10732;51.472;6.466;2023-04-06T15:41:56;8.90;99.90